Aérodrome :
LOGIN :

S'inscrire | Disclaimer

   EN    FR    IT 

 










Légende :    VFR   VFR Marginal   IFR   IFR Intensif   IFR Très Intensif
Visi : 
Plafond : 
>= 8 km
>= 3000ft
5 à 8 km
1000 à 3000 ft
1500m à 5 km
500 à 1000 ft
800 à 1500m
200 à 500 ft
< 800m
< 200 ft
Symboles :   Orages  Brouillard  Fortes neiges  Fortes précipitations  Vent > 20 kt
SIGMETs :   Divers  Orages  Givrage  Turbulence  Onde Orograph.  Cendres Volcan.






- Altitude de l'aérodrome : 529 ft
- Code IATA : CHR


LFLX - Chateauroux

DERNIER METAR :
  • 160300Z AUTO 11003KT 9999 BKN025 M00/M02 Q1030 NOSIG

METARs EXPIRÉS :
  • 160230Z AUTO 08003KT 9999 BKN025 M00/M03 Q1030
  • 160200Z AUTO 09004KT 9999 OVC025 01/M03 Q1029 NOSIG
  • 160130Z AUTO 08004KT 060V120 9999 OVC025 01/M02 Q1030 NOSIG
  • 160100Z AUTO VRB01KT 9999 OVC026 01/M03 Q1030 NOSIG
  • 160030Z AUTO VRB03KT 9999 OVC026 01/M03 Q1030 NOSIG

TAF TAF LFLX
Valide du 16 à 00h jusqu'au 17 à 06h UTC


152300Z 1600/1706 VRB03KT CAVOK
PROB30
TEMPO 1612/1615 -RASN
BECMG 1612/1615 20010KT BKN020
BECMG 1615/1618 4000 -RA BKN008
BECMG 1618/1621 BKN004
TEMPO 1621/1701 2000 -DZ BKN002
BECMG 1701/1702 27008KT 9999 NSW BKN030



MET'MAP, la Météo Aéronautique d'un coup d'oeil ! - Copyright ORBIFLY Décembre 2007 - Disclaimer

ORBIFLY MET'MAP TEAM :

Programmation & Développement : Alexandra Zaïnal
Sur une idée originale de : Baudouin d'Aumeries
Assistance à la programmation : Marc-Olivier Méhu
Soutien technique & logistique : Manuel Goepfert

Contact : metmap@orbifly.com




SOURCES & CREDITS :

   NOAA